sensor_id;sensor_type;location;lat;lon;timestamp;temperature;humidity
16128;DHT22;8168;49.036;7.690;2023-12-14T00:00:18;8.50;99.90
16128;DHT22;8168;49.036;7.690;2023-12-14T00:02:49;8.50;99.90
16128;DHT22;8168;49.036;7.690;2023-12-14T00:05:20;8.40;99.90
16128;DHT22;8168;49.036;7.690;2023-12-14T00:07:50;8.40;99.90
16128;DHT22;8168;49.036;7.690;2023-12-14T00:10:21;8.40;99.90
16128;DHT22;8168;49.036;7.690;2023-12-14T00:12:51;8.50;99.90
16128;DHT22;8168;49.036;7.690;2023-12-14T00:15:23;8.50;99.90
16128;DHT22;8168;49.036;7.690;2023-12-14T00:17:54;8.50;99.90
16128;DHT22;8168;49.036;7.690;2023-12-14T00:20:24;8.50;99.90
16128;DHT22;8168;49.036;7.690;2023-12-14T00:22:55;8.50;99.90
16128;DHT22;8168;49.036;7.690;2023-12-14T00:25:26;8.50;99.90
16128;DHT22;8168;49.036;7.690;2023-12-14T00:27:56;8.50;99.90
16128;DHT22;8168;49.036;7.690;2023-12-14T00:30:27;8.50;99.90
16128;DHT22;8168;49.036;7.690;2023-12-14T00:32:57;8.50;99.90
16128;DHT22;8168;49.036;7.690;2023-12-14T00:35:28;8.50;99.90
16128;DHT22;8168;49.036;7.690;2023-12-14T00:37:58;8.40;99.90
16128;DHT22;8168;49.036;7.690;2023-12-14T00:40:29;8.40;99.90
16128;DHT22;8168;49.036;7.690;2023-12-14T00:43:00;8.40;99.90
16128;DHT22;8168;49.036;7.690;2023-12-14T00:45:30;8.40;99.90
16128;DHT22;8168;49.036;7.690;2023-12-14T00:48:01;8.40;99.90
16128;DHT22;8168;49.036;7.690;2023-12-14T00:50:31;8.40;99.90
16128;DHT22;8168;49.036;7.690;2023-12-14T00:53:02;8.40;99.90
16128;DHT22;8168;49.036;7.690;2023-12-14T00:55:33;8.30;99.90
16128;DHT22;8168;49.036;7.690;2023-12-14T00:58:03;8.40;99.90
16128;DHT22;8168;49.036;7.690;2023-12-14T01:00:34;8.40;99.90
16128;DHT22;8168;49.036;7.690;2023-12-14T01:03:04;8.40;99.90
16128;DHT22;8168;49.036;7.690;2023-12-14T01:05:35;8.40;99.90
16128;DHT22;8168;49.036;7.690;2023-12-14T01:08:06;8.50;99.90
16128;DHT22;8168;49.036;7.690;2023-12-14T01:10:36;8.50;99.90
16128;DHT22;8168;49.036;7.690;2023-12-14T01:13:07;8.50;99.90
16128;DHT22;8168;49.036;7.690;2023-12-14T01:15:38;8.50;99.90
16128;DHT22;8168;49.036;7.690;2023-12-14T01:18:09;8.50;99.90
16128;DHT22;8168;49.036;7.690;2023-12-14T01:20:39;8.50;99.90
16128;DHT22;8168;49.036;7.690;2023-12-14T01:23:10;8.50;99.90
16128;DHT22;8168;49.036;7.690;2023-12-14T01:25:40;8.50;99.90
16128;DHT22;8168;49.036;7.690;2023-12-14T01:28:11;8.50;99.90
16128;DHT22;8168;49.036;7.690;2023-12-14T01:30:44;8.50;99.90
16128;DHT22;8168;49.036;7.690;2023-12-14T01:33:14;8.50;99.90
16128;DHT22;8168;49.036;7.690;2023-12-14T01:35:45;8.50;99.90
16128;DHT22;8168;49.036;7.690;2023-12-14T01:38:16;8.50;99.90
16128;DHT22;8168;49.036;7.690;2023-12-14T01:40:46;8.50;99.90
16128;DHT22;8168;49.036;7.690;2023-12-14T01:43:17;8.50;99.90
16128;DHT22;8168;49.036;7.690;2023-12-14T01:45:48;8.60;99.90
16128;DHT22;8168;49.036;7.690;2023-12-14T01:48:18;8.60;99.90
16128;DHT22;8168;49.036;7.690;2023-12-14T01:50:49;8.60;99.90
16128;DHT22;8168;49.036;7.690;2023-12-14T01:53:19;8.60;99.90
16128;DHT22;8168;49.036;7.690;2023-12-14T01:55:50;8.60;99.90
16128;DHT22;8168;49.036;7.690;2023-12-14T01:58:21;8.60;99.90
16128;DHT22;8168;49.036;7.690;2023-12-14T02:03:34;8.60;99.90
16128;DHT22;8168;49.036;7.690;2023-12-14T02:06:05;8.60;99.90
16128;DHT22;8168;49.036;7.690;2023-12-14T02:08:37;8.60;99.90
16128;DHT22;8168;49.036;7.690;2023-12-14T02:11:08;8.60;99.90
16128;DHT22;8168;49.036;7.690;2023-12-14T02:13:38;8.60;99.90
16128;DHT22;8168;49.036;7.690;2023-12-14T02:16:09;8.60;99.90
16128;DHT22;8168;49.036;7.690;2023-12-14T02:18:40;8.60;99.90
16128;DHT22;8168;49.036;7.690;2023-12-14T02:21:10;8.60;99.90
16128;DHT22;8168;49.036;7.690;2023-12-14T02:23:45;8.60;99.90
16128;DHT22;8168;49.036;7.690;2023-12-14T02:26:15;8.60;99.90
16128;DHT22;8168;49.036;7.690;2023-12-14T02:28:46;8.60;99.90
16128;DHT22;8168;49.036;7.690;2023-12-14T02:31:18;8.60;99.90
16128;DHT22;8168;49.036;7.690;2023-12-14T02:33:49;8.60;99.90
16128;DHT22;8168;49.036;7.690;2023-12-14T02:36:20;8.60;99.90
16128;DHT22;8168;49.036;7.690;2023-12-14T02:38:50;8.60;99.90
16128;DHT22;8168;49.036;7.690;2023-12-14T02:41:21;8.60;99.90
16128;DHT22;8168;49.036;7.690;2023-12-14T02:43:51;8.60;99.90
16128;DHT22;8168;49.036;7.690;2023-12-14T02:46:22;8.60;99.90
16128;DHT22;8168;49.036;7.690;2023-12-14T02:48:53;8.60;99.90
16128;DHT22;8168;49.036;7.690;2023-12-14T02:51:23;8.50;99.90
16128;DHT22;8168;49.036;7.690;2023-12-14T02:53:54;8.60;99.90
16128;DHT22;8168;49.036;7.690;2023-12-14T02:56:27;8.50;99.90
16128;DHT22;8168;49.036;7.690;2023-12-14T02:58:58;8.50;99.90
16128;DHT22;8168;49.036;7.690;2023-12-14T03:01:28;8.50;99.90
16128;DHT22;8168;49.036;7.690;2023-12-14T03:03:59;8.50;99.90
16128;DHT22;8168;49.036;7.690;2023-12-14T03:06:30;8.50;99.90
16128;DHT22;8168;49.036;7.690;2023-12-14T03:09:00;8.50;99.90
16128;DHT22;8168;49.036;7.690;2023-12-14T03:11:31;8.50;99.90
16128;DHT22;8168;49.036;7.690;2023-12-14T03:14:01;8.50;99.90
16128;DHT22;8168;49.036;7.690;2023-12-14T03:16:32;8.50;99.90
16128;DHT22;8168;49.036;7.690;2023-12-14T03:19:03;8.50;99.90
16128;DHT22;8168;49.036;7.690;2023-12-14T03:21:33;8.50;99.90
16128;DHT22;8168;49.036;7.690;2023-12-14T03:24:04;8.50;99.90
16128;DHT22;8168;49.036;7.690;2023-12-14T03:26:35;8.50;99.90
16128;DHT22;8168;49.036;7.690;2023-12-14T03:29:06;8.50;99.90
16128;DHT22;8168;49.036;7.690;2023-12-14T03:31:38;8.50;99.90
16128;DHT22;8168;49.036;7.690;2023-12-14T03:34:10;8.40;99.90
16128;DHT22;8168;49.036;7.690;2023-12-14T03:36:41;8.50;99.90
16128;DHT22;8168;49.036;7.690;2023-12-14T03:39:11;8.50;99.90
16128;DHT22;8168;49.036;7.690;2023-12-14T03:41:42;8.40;99.90
16128;DHT22;8168;49.036;7.690;2023-12-14T03:44:13;8.50;99.90
16128;DHT22;8168;49.036;7.690;2023-12-14T03:46:44;8.40;99.90
16128;DHT22;8168;49.036;7.690;2023-12-14T03:49:14;8.40;99.90
16128;DHT22;8168;49.036;7.690;2023-12-14T03:51:45;8.40;99.90
16128;DHT22;8168;49.036;7.690;2023-12-14T03:54:16;8.40;99.90
16128;DHT22;8168;49.036;7.690;2023-12-14T03:56:46;8.40;99.90
16128;DHT22;8168;49.036;7.690;2023-12-14T03:59:17;8.40;99.90
16128;DHT22;8168;49.036;7.690;2023-12-14T04:01:47;8.40;99.90
16128;DHT22;8168;49.036;7.690;2023-12-14T04:04:18;8.40;99.90
16128;DHT22;8168;49.036;7.690;2023-12-14T04:06:48;8.40;99.90
16128;DHT22;8168;49.036;7.690;2023-12-14T04:09:19;8.50;99.90
16128;DHT22;8168;49.036;7.690;2023-12-14T04:11:50;8.50;99.90
16128;DHT22;8168;49.036;7.690;2023-12-14T04:14:20;8.50;99.90
16128;DHT22;8168;49.036;7.690;2023-12-14T04:16:51;8.50;99.90
16128;DHT22;8168;49.036;7.690;2023-12-14T04:19:22;8.50;99.90
16128;DHT22;8168;49.036;7.690;2023-12-14T04:21:52;8.50;99.90
16128;DHT22;8168;49.036;7.690;2023-12-14T04:24:23;8.50;99.90
16128;DHT22;8168;49.036;7.690;2023-12-14T04:26:53;8.40;99.90
16128;DHT22;8168;49.036;7.690;2023-12-14T04:29:24;8.50;99.90
16128;DHT22;8168;49.036;7.690;2023-12-14T04:31:55;8.50;99.90
16128;DHT22;8168;49.036;7.690;2023-12-14T04:34:25;8.40;99.90
16128;DHT22;8168;49.036;7.690;2023-12-14T04:36:56;8.40;99.90
16128;DHT22;8168;49.036;7.690;2023-12-14T04:39:28;8.40;99.90
16128;DHT22;8168;49.036;7.690;2023-12-14T04:41:58;8.40;99.90
16128;DHT22;8168;49.036;7.690;2023-12-14T04:44:29;8.50;99.90
16128;DHT22;8168;49.036;7.690;2023-12-14T04:46:59;8.40;99.90
16128;DHT22;8168;49.036;7.690;2023-12-14T04:49:30;8.40;99.90
16128;DHT22;8168;49.036;7.690;2023-12-14T04:52:01;8.40;99.90
16128;DHT22;8168;49.036;7.690;2023-12-14T04:54:31;8.40;99.90
16128;DHT22;8168;49.036;7.690;2023-12-14T04:57:02;8.40;99.90
16128;DHT22;8168;49.036;7.690;2023-12-14T04:59:33;8.40;99.90
16128;DHT22;8168;49.036;7.690;2023-12-14T05:02:03;8.40;99.90
16128;DHT22;8168;49.036;7.690;2023-12-14T05:04:34;8.40;99.90
16128;DHT22;8168;49.036;7.690;2023-12-14T05:07:05;8.40;99.90
16128;DHT22;8168;49.036;7.690;2023-12-14T05:09:36;8.40;99.90
16128;DHT22;8168;49.036;7.690;2023-12-14T05:12:07;8.40;99.90
16128;DHT22;8168;49.036;7.690;2023-12-14T05:14:37;8.40;99.90
16128;DHT22;8168;49.036;7.690;2023-12-14T05:17:08;8.50;99.90
16128;DHT22;8168;49.036;7.690;2023-12-14T05:19:38;8.50;99.90
16128;DHT22;8168;49.036;7.690;2023-12-14T05:22:09;8.40;99.90
16128;DHT22;8168;49.036;7.690;2023-12-14T05:24:40;8.40;99.90
16128;DHT22;8168;49.036;7.690;2023-12-14T05:27:11;8.40;99.90
16128;DHT22;8168;49.036;7.690;2023-12-14T05:29:41;8.40;99.90
16128;DHT22;8168;49.036;7.690;2023-12-14T05:32:12;8.40;99.90
16128;DHT22;8168;49.036;7.690;2023-12-14T05:34:42;8.40;99.90
16128;DHT22;8168;49.036;7.690;2023-12-14T05:37:13;8.40;99.90
16128;DHT22;8168;49.036;7.690;2023-12-14T05:39:44;8.40;99.90
16128;DHT22;8168;49.036;7.690;2023-12-14T05:42:18;8.40;99.90
16128;DHT22;8168;49.036;7.690;2023-12-14T05:44:49;8.40;99.90
16128;DHT22;8168;49.036;7.690;2023-12-14T05:47:20;8.40;99.90
16128;DHT22;8168;49.036;7.690;2023-12-14T05:49:50;8.40;99.90
16128;DHT22;8168;49.036;7.690;2023-12-14T05:52:21;8.40;99.90
16128;DHT22;8168;49.036;7.690;2023-12-14T05:54:51;8.40;99.90
16128;DHT22;8168;49.036;7.690;2023-12-14T05:57:22;8.50;99.90
16128;DHT22;8168;49.036;7.690;2023-12-14T05:59:53;8.50;99.90
16128;DHT22;8168;49.036;7.690;2023-12-14T06:02:23;8.50;99.90
16128;DHT22;8168;49.036;7.690;2023-12-14T06:04:54;8.50;99.90
16128;DHT22;8168;49.036;7.690;2023-12-14T06:07:27;8.50;99.90
16128;DHT22;8168;49.036;7.690;2023-12-14T06:09:57;8.40;99.90
16128;DHT22;8168;49.036;7.690;2023-12-14T06:12:28;8.50;99.90
16128;DHT22;8168;49.036;7.690;2023-12-14T06:14:59;8.40;99.90
16128;DHT22;8168;49.036;7.690;2023-12-14T06:17:29;8.40;99.90
16128;DHT22;8168;49.036;7.690;2023-12-14T06:20:00;8.40;99.90
16128;DHT22;8168;49.036;7.690;2023-12-14T06:22:31;8.40;99.90
16128;DHT22;8168;49.036;7.690;2023-12-14T06:25:01;8.40;99.90
16128;DHT22;8168;49.036;7.690;2023-12-14T06:27:33;8.40;99.90
16128;DHT22;8168;49.036;7.690;2023-12-14T06:30:04;8.40;99.90
16128;DHT22;8168;49.036;7.690;2023-12-14T06:32:35;8.30;99.90
16128;DHT22;8168;49.036;7.690;2023-12-14T06:35:06;8.20;99.90
16128;DHT22;8168;49.036;7.690;2023-12-14T06:37:37;8.20;99.90
16128;DHT22;8168;49.036;7.690;2023-12-14T06:40:08;8.20;99.90
16128;DHT22;8168;49.036;7.690;2023-12-14T06:42:39;8.10;99.90
16128;DHT22;8168;49.036;7.690;2023-12-14T06:45:10;8.20;99.90
16128;DHT22;8168;49.036;7.690;2023-12-14T06:47:40;8.10;99.90
16128;DHT22;8168;49.036;7.690;2023-12-14T06:50:13;8.10;99.90
16128;DHT22;8168;49.036;7.690;2023-12-14T06:52:44;8.10;99.90
16128;DHT22;8168;49.036;7.690;2023-12-14T06:55:15;8.10;99.90
16128;DHT22;8168;49.036;7.690;2023-12-14T06:57:45;8.10;99.90
16128;DHT22;8168;49.036;7.690;2023-12-14T07:00:17;8.00;99.90
16128;DHT22;8168;49.036;7.690;2023-12-14T07:02:48;8.00;99.90
16128;DHT22;8168;49.036;7.690;2023-12-14T07:05:18;8.00;99.90
16128;DHT22;8168;49.036;7.690;2023-12-14T07:07:49;8.00;99.90
16128;DHT22;8168;49.036;7.690;2023-12-14T07:10:20;7.80;99.90
16128;DHT22;8168;49.036;7.690;2023-12-14T07:12:50;7.70;99.90
16128;DHT22;8168;49.036;7.690;2023-12-14T07:15:21;7.70;99.90
16128;DHT22;8168;49.036;7.690;2023-12-14T07:17:52;7.70;99.90
16128;DHT22;8168;49.036;7.690;2023-12-14T07:20:22;7.70;99.90
16128;DHT22;8168;49.036;7.690;2023-12-14T07:22:53;7.70;99.90
16128;DHT22;8168;49.036;7.690;2023-12-14T07:25:24;7.60;99.90
16128;DHT22;8168;49.036;7.690;2023-12-14T07:27:54;7.60;99.90
16128;DHT22;8168;49.036;7.690;2023-12-14T07:30:25;7.60;99.90
16128;DHT22;8168;49.036;7.690;2023-12-14T07:32:55;7.70;99.90
16128;DHT22;8168;49.036;7.690;2023-12-14T07:35:26;7.70;99.90
16128;DHT22;8168;49.036;7.690;2023-12-14T07:37:57;7.70;99.90
16128;DHT22;8168;49.036;7.690;2023-12-14T07:40:28;7.70;99.90
16128;DHT22;8168;49.036;7.690;2023-12-14T07:42:59;7.70;99.90
16128;DHT22;8168;49.036;7.690;2023-12-14T07:45:29;7.70;99.90
16128;DHT22;8168;49.036;7.690;2023-12-14T07:48:00;7.70;99.90
16128;DHT22;8168;49.036;7.690;2023-12-14T07:50:31;7.70;99.90
16128;DHT22;8168;49.036;7.690;2023-12-14T07:53:01;7.80;99.90
16128;DHT22;8168;49.036;7.690;2023-12-14T07:55:33;7.80;99.90
16128;DHT22;8168;49.036;7.690;2023-12-14T07:58:04;7.80;99.90
16128;DHT22;8168;49.036;7.690;2023-12-14T08:00:34;7.80;99.90
16128;DHT22;8168;49.036;7.690;2023-12-14T08:03:05;7.80;99.90
16128;DHT22;8168;49.036;7.690;2023-12-14T08:05:35;7.90;99.90
16128;DHT22;8168;49.036;7.690;2023-12-14T08:08:06;7.90;99.90
16128;DHT22;8168;49.036;7.690;2023-12-14T08:10:37;7.90;99.90
16128;DHT22;8168;49.036;7.690;2023-12-14T08:13:07;8.00;99.90
16128;DHT22;8168;49.036;7.690;2023-12-14T08:15:38;8.00;99.90
16128;DHT22;8168;49.036;7.690;2023-12-14T08:18:08;8.00;99.90
16128;DHT22;8168;49.036;7.690;2023-12-14T08:20:39;8.00;99.90
16128;DHT22;8168;49.036;7.690;2023-12-14T08:23:10;8.00;99.90
16128;DHT22;8168;49.036;7.690;2023-12-14T08:25:40;8.10;99.90
16128;DHT22;8168;49.036;7.690;2023-12-14T08:28:11;8.10;99.90
16128;DHT22;8168;49.036;7.690;2023-12-14T08:30:41;8.10;99.90
16128;DHT22;8168;49.036;7.690;2023-12-14T08:33:12;8.00;99.90
16128;DHT22;8168;49.036;7.690;2023-12-14T08:35:43;8.00;99.90
16128;DHT22;8168;49.036;7.690;2023-12-14T08:38:13;8.00;99.90
16128;DHT22;8168;49.036;7.690;2023-12-14T08:40:44;8.10;99.90
16128;DHT22;8168;49.036;7.690;2023-12-14T08:43:14;8.10;99.90
16128;DHT22;8168;49.036;7.690;2023-12-14T08:45:45;8.10;99.90
16128;DHT22;8168;49.036;7.690;2023-12-14T08:48:16;8.10;99.90
16128;DHT22;8168;49.036;7.690;2023-12-14T08:50:46;8.20;99.90
16128;DHT22;8168;49.036;7.690;2023-12-14T08:53:17;8.20;99.90
16128;DHT22;8168;49.036;7.690;2023-12-14T08:55:48;8.20;99.90
16128;DHT22;8168;49.036;7.690;2023-12-14T08:58:18;8.20;99.90
16128;DHT22;8168;49.036;7.690;2023-12-14T09:00:49;8.30;99.90
16128;DHT22;8168;49.036;7.690;2023-12-14T09:03:23;8.30;99.90
16128;DHT22;8168;49.036;7.690;2023-12-14T09:05:53;8.30;99.90
16128;DHT22;8168;49.036;7.690;2023-12-14T09:08:24;8.30;99.90
16128;DHT22;8168;49.036;7.690;2023-12-14T09:10:55;8.40;99.90
16128;DHT22;8168;49.036;7.690;2023-12-14T09:13:25;8.40;99.90
16128;DHT22;8168;49.036;7.690;2023-12-14T09:15:56;8.40;99.90
16128;DHT22;8168;49.036;7.690;2023-12-14T09:18:26;8.40;99.90
16128;DHT22;8168;49.036;7.690;2023-12-14T09:20:57;8.40;99.90
16128;DHT22;8168;49.036;7.690;2023-12-14T09:23:28;8.40;99.90
16128;DHT22;8168;49.036;7.690;2023-12-14T09:25:58;8.50;99.90
16128;DHT22;8168;49.036;7.690;2023-12-14T09:28:29;8.50;99.90
16128;DHT22;8168;49.036;7.690;2023-12-14T09:31:00;8.50;99.90
16128;DHT22;8168;49.036;7.690;2023-12-14T09:33:31;8.50;99.90
16128;DHT22;8168;49.036;7.690;2023-12-14T09:36:01;8.50;99.90
16128;DHT22;8168;49.036;7.690;2023-12-14T09:38:32;8.60;99.90
16128;DHT22;8168;49.036;7.690;2023-12-14T09:41:03;8.60;99.90
16128;DHT22;8168;49.036;7.690;2023-12-14T09:43:33;8.60;99.90
16128;DHT22;8168;49.036;7.690;2023-12-14T09:46:04;8.60;99.90
16128;DHT22;8168;49.036;7.690;2023-12-14T09:48:35;8.60;99.90
16128;DHT22;8168;49.036;7.690;2023-12-14T09:51:06;8.70;99.90
16128;DHT22;8168;49.036;7.690;2023-12-14T09:53:37;8.70;99.90
16128;DHT22;8168;49.036;7.690;2023-12-14T09:56:08;8.70;99.90
16128;DHT22;8168;49.036;7.690;2023-12-14T09:58:38;8.70;99.90
16128;DHT22;8168;49.036;7.690;2023-12-14T10:01:25;8.70;99.90
16128;DHT22;8168;49.036;7.690;2023-12-14T10:04:17;8.80;99.90
16128;DHT22;8168;49.036;7.690;2023-12-14T10:06:48;8.80;99.90
16128;DHT22;8168;49.036;7.690;2023-12-14T10:09:23;8.80;99.90
16128;DHT22;8168;49.036;7.690;2023-12-14T10:12:06;8.80;99.90
16128;DHT22;8168;49.036;7.690;2023-12-14T10:14:38;8.80;99.90
16128;DHT22;8168;49.036;7.690;2023-12-14T10:19:47;8.70;99.90
16128;DHT22;8168;49.036;7.690;2023-12-14T10:22:18;8.70;99.90
16128;DHT22;8168;49.036;7.690;2023-12-14T10:24:49;8.80;99.90
16128;DHT22;8168;49.036;7.690;2023-12-14T10:27:20;8.80;99.90
16128;DHT22;8168;49.036;7.690;2023-12-14T10:29:50;8.80;99.90
16128;DHT22;8168;49.036;7.690;2023-12-14T10:32:22;8.80;99.90
16128;DHT22;8168;49.036;7.690;2023-12-14T10:34:53;8.80;99.90
16128;DHT22;8168;49.036;7.690;2023-12-14T10:37:25;8.90;99.90
16128;DHT22;8168;49.036;7.690;2023-12-14T10:39:57;8.90;99.90
16128;DHT22;8168;49.036;7.690;2023-12-14T10:42:27;8.90;99.90
16128;DHT22;8168;49.036;7.690;2023-12-14T10:45:01;8.90;99.90
16128;DHT22;8168;49.036;7.690;2023-12-14T10:47:32;8.90;99.90
16128;DHT22;8168;49.036;7.690;2023-12-14T10:50:05;8.90;99.90
16128;DHT22;8168;49.036;7.690;2023-12-14T10:52:40;8.90;99.90
16128;DHT22;8168;49.036;7.690;2023-12-14T10:55:18;8.90;99.90
16128;DHT22;8168;49.036;7.690;2023-12-14T10:57:53;8.90;99.90
16128;DHT22;8168;49.036;7.690;2023-12-14T11:00:24;8.90;99.90
16128;DHT22;8168;49.036;7.690;2023-12-14T11:02:55;8.90;99.90
16128;DHT22;8168;49.036;7.690;2023-12-14T11:05:28;8.90;99.90
16128;DHT22;8168;49.036;7.690;2023-12-14T11:08:03;9.00;99.90
16128;DHT22;8168;49.036;7.690;2023-12-14T11:10:53;9.00;99.90
16128;DHT22;8168;49.036;7.690;2023-12-14T11:13:27;8.90;99.90
16128;DHT22;8168;49.036;7.690;2023-12-14T11:16:01;8.90;99.90
16128;DHT22;8168;49.036;7.690;2023-12-14T11:18:31;9.00;99.90
16128;DHT22;8168;49.036;7.690;2023-12-14T11:21:02;9.00;99.90
16128;DHT22;8168;49.036;7.690;2023-12-14T11:23:36;8.90;99.90
16128;DHT22;8168;49.036;7.690;2023-12-14T11:26:09;9.00;99.90
16128;DHT22;8168;49.036;7.690;2023-12-14T11:28:40;9.00;99.90
16128;DHT22;8168;49.036;7.690;2023-12-14T11:31:14;9.00;99.90
16128;DHT22;8168;49.036;7.690;2023-12-14T11:33:45;9.00;99.90
16128;DHT22;8168;49.036;7.690;2023-12-14T11:36:16;9.00;99.90
16128;DHT22;8168;49.036;7.690;2023-12-14T11:38:47;9.00;99.90
16128;DHT22;8168;49.036;7.690;2023-12-14T11:41:18;9.00;99.90
16128;DHT22;8168;49.036;7.690;2023-12-14T11:43:50;9.00;99.90
16128;DHT22;8168;49.036;7.690;2023-12-14T11:46:21;9.00;99.90
16128;DHT22;8168;49.036;7.690;2023-12-14T11:48:51;9.00;99.90
16128;DHT22;8168;49.036;7.690;2023-12-14T11:51:23;9.10;99.90
16128;DHT22;8168;49.036;7.690;2023-12-14T11:53:56;9.10;99.90
16128;DHT22;8168;49.036;7.690;2023-12-14T11:56:26;9.10;99.90
16128;DHT22;8168;49.036;7.690;2023-12-14T11:58:57;9.10;99.90
16128;DHT22;8168;49.036;7.690;2023-12-14T12:01:28;9.10;99.90
16128;DHT22;8168;49.036;7.690;2023-12-14T12:04:08;9.20;99.90
16128;DHT22;8168;49.036;7.690;2023-12-14T12:06:40;9.20;99.90
16128;DHT22;8168;49.036;7.690;2023-12-14T12:09:11;9.20;99.90
16128;DHT22;8168;49.036;7.690;2023-12-14T12:11:43;9.20;99.90
16128;DHT22;8168;49.036;7.690;2023-12-14T12:14:14;9.20;99.90
16128;DHT22;8168;49.036;7.690;2023-12-14T12:16:44;9.20;99.90
16128;DHT22;8168;49.036;7.690;2023-12-14T12:19:18;9.20;99.90
16128;DHT22;8168;49.036;7.690;2023-12-14T12:21:48;9.20;99.90
16128;DHT22;8168;49.036;7.690;2023-12-14T12:24:19;9.20;99.90
16128;DHT22;8168;49.036;7.690;2023-12-14T12:26:50;9.20;99.90
16128;DHT22;8168;49.036;7.690;2023-12-14T12:29:22;9.20;99.90
16128;DHT22;8168;49.036;7.690;2023-12-14T12:31:52;9.20;99.90
16128;DHT22;8168;49.036;7.690;2023-12-14T12:34:23;9.20;99.90
16128;DHT22;8168;49.036;7.690;2023-12-14T12:36:54;9.20;99.90
16128;DHT22;8168;49.036;7.690;2023-12-14T12:39:25;9.30;99.90
16128;DHT22;8168;49.036;7.690;2023-12-14T12:41:56;9.30;99.90
16128;DHT22;8168;49.036;7.690;2023-12-14T12:44:26;9.30;99.90
16128;DHT22;8168;49.036;7.690;2023-12-14T12:46:57;9.30;99.90
16128;DHT22;8168;49.036;7.690;2023-12-14T12:49:30;9.30;99.90
16128;DHT22;8168;49.036;7.690;2023-12-14T12:52:00;9.30;99.90
16128;DHT22;8168;49.036;7.690;2023-12-14T12:54:31;9.30;99.90
16128;DHT22;8168;49.036;7.690;2023-12-14T12:57:03;9.20;99.90
16128;DHT22;8168;49.036;7.690;2023-12-14T12:59:34;9.20;99.90
16128;DHT22;8168;49.036;7.690;2023-12-14T13:02:05;9.20;99.90
16128;DHT22;8168;49.036;7.690;2023-12-14T13:04:36;9.20;99.90
16128;DHT22;8168;49.036;7.690;2023-12-14T13:07:07;9.20;99.90
16128;DHT22;8168;49.036;7.690;2023-12-14T13:09:38;9.10;99.90
16128;DHT22;8168;49.036;7.690;2023-12-14T13:12:08;9.30;99.90
16128;DHT22;8168;49.036;7.690;2023-12-14T13:14:40;9.30;99.90
16128;DHT22;8168;49.036;7.690;2023-12-14T13:17:11;9.30;99.90
16128;DHT22;8168;49.036;7.690;2023-12-14T13:19:41;9.30;99.90
16128;DHT22;8168;49.036;7.690;2023-12-14T13:22:12;9.30;99.90
16128;DHT22;8168;49.036;7.690;2023-12-14T13:24:43;9.30;99.90
16128;DHT22;8168;49.036;7.690;2023-12-14T13:27:13;9.40;99.90
16128;DHT22;8168;49.036;7.690;2023-12-14T13:29:44;9.40;99.90
16128;DHT22;8168;49.036;7.690;2023-12-14T13:32:15;9.50;99.90
16128;DHT22;8168;49.036;7.690;2023-12-14T13:34:46;9.50;99.90
16128;DHT22;8168;49.036;7.690;2023-12-14T13:37:17;9.50;99.90
16128;DHT22;8168;49.036;7.690;2023-12-14T13:39:48;13.10;99.90
16128;DHT22;8168;49.036;7.690;2023-12-14T13:42:19;9.50;99.90
16128;DHT22;8168;49.036;7.690;2023-12-14T13:44:50;9.50;99.90
16128;DHT22;8168;49.036;7.690;2023-12-14T13:47:20;9.50;99.90
16128;DHT22;8168;49.036;7.690;2023-12-14T13:49:51;9.50;99.90
16128;DHT22;8168;49.036;7.690;2023-12-14T13:52:22;9.40;99.90
16128;DHT22;8168;49.036;7.690;2023-12-14T13:54:52;9.50;99.90
16128;DHT22;8168;49.036;7.690;2023-12-14T13:57:23;9.50;99.90
16128;DHT22;8168;49.036;7.690;2023-12-14T13:59:54;9.50;99.90
16128;DHT22;8168;49.036;7.690;2023-12-14T14:02:24;9.60;99.90
16128;DHT22;8168;49.036;7.690;2023-12-14T14:04:57;9.60;99.90
16128;DHT22;8168;49.036;7.690;2023-12-14T14:07:28;9.50;99.90
16128;DHT22;8168;49.036;7.690;2023-12-14T14:09:59;9.50;99.90
16128;DHT22;8168;49.036;7.690;2023-12-14T14:12:29;9.50;99.90
16128;DHT22;8168;49.036;7.690;2023-12-14T14:15:00;9.50;99.90
16128;DHT22;8168;49.036;7.690;2023-12-14T14:17:30;9.40;99.90
16128;DHT22;8168;49.036;7.690;2023-12-14T14:20:01;9.50;99.90
16128;DHT22;8168;49.036;7.690;2023-12-14T14:22:32;9.50;99.90
16128;DHT22;8168;49.036;7.690;2023-12-14T14:25:04;9.50;99.90
16128;DHT22;8168;49.036;7.690;2023-12-14T14:27:35;9.50;99.90
16128;DHT22;8168;49.036;7.690;2023-12-14T14:30:06;9.40;99.90
16128;DHT22;8168;49.036;7.690;2023-12-14T14:32:37;9.40;99.90
16128;DHT22;8168;49.036;7.690;2023-12-14T14:35:08;9.30;99.90
16128;DHT22;8168;49.036;7.690;2023-12-14T14:37:39;9.30;99.90
16128;DHT22;8168;49.036;7.690;2023-12-14T14:40:13;9.30;99.90
16128;DHT22;8168;49.036;7.690;2023-12-14T14:42:47;9.30;99.90
16128;DHT22;8168;49.036;7.690;2023-12-14T14:45:17;9.30;99.90
16128;DHT22;8168;49.036;7.690;2023-12-14T14:47:48;9.30;99.90
16128;DHT22;8168;49.036;7.690;2023-12-14T14:50:18;9.30;99.90
16128;DHT22;8168;49.036;7.690;2023-12-14T14:52:49;9.20;99.90
16128;DHT22;8168;49.036;7.690;2023-12-14T14:55:20;9.20;99.90
16128;DHT22;8168;49.036;7.690;2023-12-14T14:57:52;9.20;99.90
16128;DHT22;8168;49.036;7.690;2023-12-14T15:00:22;9.20;99.90
16128;DHT22;8168;49.036;7.690;2023-12-14T15:02:54;9.20;99.90
16128;DHT22;8168;49.036;7.690;2023-12-14T15:05:24;9.20;99.90
16128;DHT22;8168;49.036;7.690;2023-12-14T15:07:55;9.20;99.90
16128;DHT22;8168;49.036;7.690;2023-12-14T15:10:29;9.10;99.90
16128;DHT22;8168;49.036;7.690;2023-12-14T15:13:00;9.10;99.90
16128;DHT22;8168;49.036;7.690;2023-12-14T15:15:30;9.10;99.90
16128;DHT22;8168;49.036;7.690;2023-12-14T15:18:02;9.10;99.90
16128;DHT22;8168;49.036;7.690;2023-12-14T15:20:33;9.00;99.90
16128;DHT22;8168;49.036;7.690;2023-12-14T15:23:03;8.90;99.90
16128;DHT22;8168;49.036;7.690;2023-12-14T15:25:38;8.80;99.90
16128;DHT22;8168;49.036;7.690;2023-12-14T15:28:09;8.60;99.90
16128;DHT22;8168;49.036;7.690;2023-12-14T15:30:40;8.70;99.90
16128;DHT22;8168;49.036;7.690;2023-12-14T15:33:11;8.70;99.90
16128;DHT22;8168;49.036;7.690;2023-12-14T15:35:41;8.70;99.90
16128;DHT22;8168;49.036;7.690;2023-12-14T15:38:12;8.70;99.90
16128;DHT22;8168;49.036;7.690;2023-12-14T15:40:43;8.70;99.90
16128;DHT22;8168;49.036;7.690;2023-12-14T15:43:14;8.70;99.90
16128;DHT22;8168;49.036;7.690;2023-12-14T15:45:44;8.70;99.90
16128;DHT22;8168;49.036;7.690;2023-12-14T15:48:15;8.60;99.90
16128;DHT22;8168;49.036;7.690;2023-12-14T15:50:46;8.60;99.90
16128;DHT22;8168;49.036;7.690;2023-12-14T15:53:16;8.50;99.90
16128;DHT22;8168;49.036;7.690;2023-12-14T15:55:47;8.50;99.90
16128;DHT22;8168;49.036;7.690;2023-12-14T15:58:19;8.50;99.90
16128;DHT22;8168;49.036;7.690;2023-12-14T16:00:49;8.40;99.90
16128;DHT22;8168;49.036;7.690;2023-12-14T16:03:20;8.40;99.90
16128;DHT22;8168;49.036;7.690;2023-12-14T16:05:50;8.40;99.90
16128;DHT22;8168;49.036;7.690;2023-12-14T16:08:21;8.40;99.90
16128;DHT22;8168;49.036;7.690;2023-12-14T16:10:52;8.30;99.90
16128;DHT22;8168;49.036;7.690;2023-12-14T16:13:23;8.30;99.90
16128;DHT22;8168;49.036;7.690;2023-12-14T16:15:54;8.30;99.90
16128;DHT22;8168;49.036;7.690;2023-12-14T16:18:25;8.30;99.90
16128;DHT22;8168;49.036;7.690;2023-12-14T16:20:57;8.30;99.90
16128;DHT22;8168;49.036;7.690;2023-12-14T16:23:28;8.20;99.90
16128;DHT22;8168;49.036;7.690;2023-12-14T16:25:58;8.20;99.90
16128;DHT22;8168;49.036;7.690;2023-12-14T16:28:29;8.20;99.90
16128;DHT22;8168;49.036;7.690;2023-12-14T16:31:04;8.20;99.90